createdAt,value
2022-10-17T00:00:09.819Z,99136.44
2022-10-17T00:02:37.400Z,99140.59
2022-10-17T00:05:04.285Z,99143.22
2022-10-17T00:07:31.112Z,99138.50
2022-10-17T00:09:57.991Z,99143.69
2022-10-17T00:12:24.642Z,99144.44
2022-10-17T00:14:51.304Z,99140.66
2022-10-17T00:17:17.951Z,99145.44
2022-10-17T00:19:44.591Z,99141.59
2022-10-17T00:22:11.177Z,99140.44
2022-10-17T00:24:37.814Z,99146.50
2022-10-17T00:27:04.867Z,99137.56
2022-10-17T00:29:31.622Z,99143.03
2022-10-17T00:31:58.279Z,99148.34
2022-10-17T00:34:25.446Z,99140.44
2022-10-17T00:36:52.410Z,99151.66
2022-10-17T00:39:19.091Z,99145.53
2022-10-17T00:41:45.843Z,99139.63
2022-10-17T00:44:47.730Z,99147.44
2022-10-17T00:47:19.369Z,99143.44
2022-10-17T00:49:46.125Z,99142.84
2022-10-17T00:52:17.866Z,99140.81
2022-10-17T00:54:48.586Z,99136.13
2022-10-17T00:57:16.989Z,99145.28
2022-10-17T00:59:48.520Z,99127.97
2022-10-17T01:02:18.504Z,99130.59
2022-10-17T01:04:48.332Z,99139.19
2022-10-17T01:07:15.086Z,99133.44
2022-10-17T01:09:43.216Z,99136.13
2022-10-17T01:12:25.527Z,99136.94
2022-10-17T01:14:52.375Z,99129.59
2022-10-17T01:17:35.159Z,99135.13
2022-10-17T01:20:41.540Z,99129.38
2022-10-17T01:23:43.374Z,99124.69
2022-10-17T01:26:09.956Z,99124.72
2022-10-17T01:28:57.506Z,99131.91
2022-10-17T01:31:32.169Z,99130.63
2022-10-17T01:34:09.658Z,99125.38
2022-10-17T01:36:53.733Z,99124.19
2022-10-17T01:39:43.897Z,99123.56
2022-10-17T01:42:21.258Z,99124.97
2022-10-17T01:45:03.249Z,99129.47
2022-10-17T01:47:32.457Z,99120.75
2022-10-17T01:50:06.664Z,99120.94
2022-10-17T01:52:41.398Z,99118.25
2022-10-17T01:55:26.300Z,99129.06
2022-10-17T01:58:03.413Z,99132.13
2022-10-17T02:00:32.070Z,99130.97
2022-10-17T02:03:02.512Z,99129.53
2022-10-17T02:05:33.641Z,99129.75
2022-10-17T02:08:00.229Z,99133.22
2022-10-17T02:10:42.868Z,99120.16
2022-10-17T02:13:28.525Z,99134.03
2022-10-17T02:16:11.512Z,99126.72
2022-10-17T02:19:09.070Z,99133.03
2022-10-17T02:21:42.310Z,99126.72
2022-10-17T02:24:25.393Z,99129.59
2022-10-17T02:26:59.377Z,99128.75
2022-10-17T02:29:31.273Z,99131.63
2022-10-17T02:32:04.599Z,99135.25
2022-10-17T02:34:37.076Z,99139.75
2022-10-17T02:37:07.093Z,99141.97
2022-10-17T02:39:35.960Z,99147.69
2022-10-17T02:42:06.533Z,99148.72
2022-10-17T02:44:34.960Z,99141.19
2022-10-17T02:47:12.892Z,99145.84
2022-10-17T02:49:44.463Z,99150.56
2022-10-17T02:52:17.611Z,99142.22
2022-10-17T02:54:51.612Z,99149.13
2022-10-17T02:57:29.066Z,99145.47
2022-10-17T02:59:59.216Z,99151.38
2022-10-17T03:02:25.950Z,99150.78
2022-10-17T03:04:52.896Z,99158.91
2022-10-17T03:07:19.545Z,99153.63
2022-10-17T03:09:46.143Z,99154.03
2022-10-17T03:12:12.763Z,99159.53
2022-10-17T03:14:39.349Z,99156.28
2022-10-17T03:17:05.968Z,99157.31
2022-10-17T03:19:32.771Z,99162.41
2022-10-17T03:21:59.407Z,99169.28
2022-10-17T03:24:26.046Z,99167.91
2022-10-17T03:26:52.691Z,99175.84
2022-10-17T03:29:19.373Z,99173.59
2022-10-17T03:31:46.016Z,99176.03
2022-10-17T03:34:12.655Z,99175.00
2022-10-17T03:36:39.300Z,99184.38
2022-10-17T03:39:05.890Z,99180.31
2022-10-17T03:41:32.570Z,99182.34
2022-10-17T03:43:59.305Z,99182.13
2022-10-17T03:46:26.131Z,99186.59
2022-10-17T03:48:52.804Z,99189.84
2022-10-17T03:51:19.738Z,99188.03
2022-10-17T03:53:46.412Z,99191.91
2022-10-17T03:56:18.261Z,99187.59
2022-10-17T03:58:45.447Z,99184.56
2022-10-17T04:01:14.510Z,99186.38
2022-10-17T04:03:42.149Z,99180.28
2022-10-17T04:06:11.887Z,99190.44
2022-10-17T04:08:38.791Z,99195.53
2022-10-17T04:11:07.766Z,99193.94
2022-10-17T04:13:34.686Z,99207.38
2022-10-17T04:16:07.049Z,99203.47
2022-10-17T04:18:34.314Z,99208.34
2022-10-17T04:21:03.312Z,99211.59
2022-10-17T04:23:30.321Z,99205.28
2022-10-17T04:25:57.915Z,99214.22
2022-10-17T04:28:25.682Z,99219.31
2022-10-17T04:31:09.837Z,99219.94
2022-10-17T04:33:36.575Z,99217.75
2022-10-17T04:36:06.445Z,99220.19
2022-10-17T04:38:33.728Z,99219.78
2022-10-17T04:41:05.929Z,99226.94
2022-10-17T04:43:35.142Z,99233.25
2022-10-17T04:46:03.757Z,99226.53
2022-10-17T04:48:31.042Z,99232.66
2022-10-17T04:51:00.047Z,99235.53
2022-10-17T04:53:27.871Z,99234.69
2022-10-17T04:55:54.759Z,99233.09
2022-10-17T04:58:21.413Z,99230.44
2022-10-17T05:00:48.179Z,99224.31
2022-10-17T05:03:15.447Z,99230.03
2022-10-17T05:05:42.931Z,99229.81
2022-10-17T05:08:11.206Z,99233.50
2022-10-17T05:10:40.164Z,99233.47
2022-10-17T05:13:07.321Z,99238.97
2022-10-17T05:15:34.211Z,99238.13
2022-10-17T05:18:01.300Z,99233.88
2022-10-17T05:20:31.789Z,99240.97
2022-10-17T05:23:00.183Z,99237.72
2022-10-17T05:25:26.877Z,99241.59
2022-10-17T05:27:54.181Z,99241.59
2022-10-17T05:30:21.251Z,99247.28
2022-10-17T05:32:47.940Z,99247.88
2022-10-17T05:35:18.261Z,99245.63
2022-10-17T05:37:44.862Z,99244.19
2022-10-17T05:40:12.269Z,99244.38
2022-10-17T05:45:07.052Z,99250.88
2022-10-17T05:47:33.644Z,99260.25
2022-10-17T05:50:00.242Z,99257.78
2022-10-17T05:52:27.376Z,99260.66
2022-10-17T05:54:54.195Z,99258.78
2022-10-17T05:57:20.830Z,99267.13
2022-10-17T05:59:47.425Z,99273.25
2022-10-17T06:02:14.133Z,99279.34
2022-10-17T06:04:45.599Z,99286.47
2022-10-17T06:07:13.177Z,99284.25
2022-10-17T06:09:40.207Z,99289.34
2022-10-17T06:12:07.529Z,99286.91
2022-10-17T06:14:34.336Z,99293.03
2022-10-17T06:17:01.413Z,99295.66
2022-10-17T06:19:28.160Z,99287.91
2022-10-17T06:21:54.803Z,99290.53
2022-10-17T06:24:21.420Z,99288.88
2022-10-17T06:26:49.879Z,99296.06
2022-10-17T06:29:16.752Z,99298.47
2022-10-17T06:31:43.545Z,99301.97
2022-10-17T06:34:10.375Z,99304.19
2022-10-17T06:36:37.113Z,99302.78
2022-10-17T06:39:03.888Z,99307.66
2022-10-17T06:41:30.612Z,99317.25
2022-10-17T06:43:57.324Z,99320.53
2022-10-17T06:46:26.753Z,99325.41
2022-10-17T06:48:53.430Z,99326.03
2022-10-17T06:51:20.093Z,99339.28
2022-10-17T06:53:47.217Z,99333.56
2022-10-17T06:56:13.973Z,99327.63
2022-10-17T06:58:41.313Z,99332.16
2022-10-17T07:01:11.193Z,99332.72
2022-10-17T07:03:38.112Z,99328.00
2022-10-17T07:06:05.476Z,99325.53
2022-10-17T07:08:32.144Z,99325.34
2022-10-17T07:10:59.192Z,99332.31
2022-10-17T07:13:25.805Z,99331.88
2022-10-17T07:15:52.618Z,99335.34
2022-10-17T07:18:19.338Z,99328.81
2022-10-17T07:20:54.738Z,99329.38
2022-10-17T07:23:22.649Z,99330.59
2022-10-17T07:25:49.273Z,99342.88
2022-10-17T07:28:16.481Z,99344.50
2022-10-17T07:30:43.609Z,99345.66
2022-10-17T07:33:10.170Z,99348.31
2022-10-17T07:35:41.000Z,99347.50
2022-10-17T07:38:07.853Z,99355.13
2022-10-17T07:40:34.476Z,99349.38
2022-10-17T07:43:01.190Z,99351.81
2022-10-17T07:45:27.918Z,99347.50
2022-10-17T07:47:57.554Z,99354.19
2022-10-17T07:50:24.809Z,99351.81
2022-10-17T07:52:51.489Z,99356.09
2022-10-17T07:55:18.138Z,99352.19
2022-10-17T07:57:44.848Z,99358.94
2022-10-17T08:00:11.895Z,99364.50
2022-10-17T08:02:38.579Z,99353.63
2022-10-17T08:05:05.576Z,99361.59
2022-10-17T08:07:32.249Z,99359.78
2022-10-17T08:09:58.990Z,99354.06
2022-10-17T08:12:26.213Z,99356.84
2022-10-17T08:14:52.841Z,99355.81
2022-10-17T08:17:19.454Z,99362.00
2022-10-17T08:19:46.040Z,99364.25
2022-10-17T08:22:12.731Z,99360.97
2022-10-17T08:24:39.398Z,99366.50
2022-10-17T08:27:11.518Z,99368.75
2022-10-17T08:29:39.173Z,99363.22
2022-10-17T08:32:09.748Z,99359.88
2022-10-17T08:34:36.674Z,99354.56
2022-10-17T08:37:03.629Z,99354.69
2022-10-17T08:39:30.292Z,99352.13
2022-10-17T08:42:07.273Z,99356.25
2022-10-17T08:45:00.456Z,99355.66
2022-10-17T08:47:34.483Z,99362.09
2022-10-17T08:50:05.773Z,99357.94
2022-10-17T08:52:44.096Z,99358.13
2022-10-17T08:55:16.269Z,99356.53
2022-10-17T08:57:43.653Z,99347.44
2022-10-17T09:00:18.319Z,99351.00
2022-10-17T09:03:15.453Z,99352.31
2022-10-17T09:06:04.150Z,99344.56
2022-10-17T09:08:43.029Z,99351.28
2022-10-17T09:11:25.848Z,99352.03
2022-10-17T09:13:53.454Z,99354.09
2022-10-17T09:16:37.397Z,99351.66
2022-10-17T09:19:17.170Z,99344.72
2022-10-17T09:21:54.283Z,99347.75
2022-10-17T09:24:33.404Z,99350.16
2022-10-17T09:27:00.597Z,99355.63
2022-10-17T09:29:32.379Z,99350.50
2022-10-17T09:32:13.794Z,99360.22
2022-10-17T09:34:41.133Z,99357.19
2022-10-17T09:37:17.138Z,99348.19
2022-10-17T09:39:44.756Z,99352.44
2022-10-17T09:42:15.918Z,99353.47
2022-10-17T09:44:44.685Z,99352.53
2022-10-17T09:47:19.525Z,99353.16
2022-10-17T09:49:48.122Z,99350.56
2022-10-17T09:52:16.475Z,99357.25
2022-10-17T09:54:47.149Z,99351.84
2022-10-17T09:57:16.062Z,99348.38
2022-10-17T09:59:45.557Z,99350.91
2022-10-17T10:02:13.193Z,99361.47
2022-10-17T10:05:06.103Z,99347.19
2022-10-17T10:07:37.961Z,99359.34
2022-10-17T10:10:07.873Z,99358.38
2022-10-17T10:12:38.434Z,99363.09
2022-10-17T10:15:30.860Z,99355.72
2022-10-17T10:17:57.524Z,99350.00
2022-10-17T10:20:41.765Z,99352.75
2022-10-17T10:23:13.461Z,99354.56
2022-10-17T10:25:52.662Z,99358.44
2022-10-17T10:28:20.023Z,99355.78
2022-10-17T10:30:51.272Z,99353.78
2022-10-17T10:33:22.201Z,99362.06
2022-10-17T10:35:56.119Z,99363.00
2022-10-17T10:38:22.875Z,99360.34
2022-10-17T10:40:54.635Z,99362.63
2022-10-17T10:43:35.411Z,99353.91
2022-10-17T10:46:06.315Z,99363.66
2022-10-17T10:48:37.065Z,99355.00
2022-10-17T10:51:13.052Z,99363.38
2022-10-17T10:53:55.009Z,99353.25
2022-10-17T10:56:43.904Z,99346.50
2022-10-17T10:59:19.053Z,99349.69
2022-10-17T11:02:02.200Z,99350.38
2022-10-17T11:04:39.580Z,99346.41
2022-10-17T11:07:28.911Z,99351.44
2022-10-17T11:10:15.178Z,99349.81
2022-10-17T11:12:59.524Z,99352.00
2022-10-17T11:15:35.680Z,99354.72
2022-10-17T11:18:08.430Z,99344.16
2022-10-17T11:21:04.318Z,99350.78
2022-10-17T11:23:38.527Z,99339.78
2022-10-17T11:26:11.311Z,99341.91
2022-10-17T11:28:38.015Z,99337.84
2022-10-17T11:31:10.293Z,99338.75
2022-10-17T11:33:52.301Z,99333.09
2022-10-17T11:36:25.519Z,99332.25
2022-10-17T11:39:04.451Z,99333.53
2022-10-17T11:41:58.873Z,99331.28
2022-10-17T11:44:34.311Z,99327.22
2022-10-17T11:47:11.253Z,99326.38
2022-10-17T11:49:46.939Z,99330.78
2022-10-17T11:52:55.278Z,99330.25
2022-10-17T11:55:24.788Z,99328.34
2022-10-17T11:57:56.324Z,99327.38
2022-10-17T12:00:49.128Z,99330.47
2022-10-17T12:03:23.911Z,99323.28
2022-10-17T12:06:08.392Z,99323.38
2022-10-17T12:08:44.964Z,99314.59
2022-10-17T12:11:28.383Z,99316.94
2022-10-17T12:13:56.851Z,99305.28
2022-10-17T12:16:38.154Z,99306.91
2022-10-17T12:19:20.534Z,99300.63
2022-10-17T12:22:02.411Z,99292.50
2022-10-17T12:24:37.820Z,99297.06
2022-10-17T12:27:24.239Z,99298.03
2022-10-17T12:29:58.484Z,99300.28
2022-10-17T12:32:30.190Z,99299.84
2022-10-17T12:35:01.140Z,99299.94
2022-10-17T12:37:43.529Z,99291.19
2022-10-17T12:40:42.211Z,99301.72
2022-10-17T12:43:30.521Z,99305.78
2022-10-17T12:46:00.226Z,99299.03
2022-10-17T12:48:59.024Z,99300.88
2022-10-17T12:51:40.955Z,99298.47
2022-10-17T12:54:12.739Z,99305.78
2022-10-17T12:56:46.810Z,99303.41
2022-10-17T12:59:18.267Z,99298.19
2022-10-17T13:01:48.417Z,99302.81
2022-10-17T13:04:15.867Z,99297.03
2022-10-17T13:06:54.402Z,99299.78
2022-10-17T13:09:29.450Z,99295.13
2022-10-17T13:11:58.983Z,99292.19
2022-10-17T13:14:26.938Z,99295.91
2022-10-17T13:16:57.415Z,99294.13
2022-10-17T13:19:29.242Z,99294.28
2022-10-17T13:22:00.977Z,99296.97
2022-10-17T13:24:36.422Z,99297.66
2022-10-17T13:27:04.479Z,99296.94
2022-10-17T13:29:32.875Z,99290.25
2022-10-17T13:32:03.888Z,99290.88
2022-10-17T13:34:32.527Z,99289.78
2022-10-17T13:37:02.308Z,99292.88
2022-10-17T13:40:00.338Z,99296.19
2022-10-17T13:42:42.009Z,99287.75
2022-10-17T13:45:22.778Z,99293.00
2022-10-17T13:47:49.692Z,99291.34
2022-10-17T13:50:43.158Z,99294.50
2022-10-17T13:53:25.037Z,99290.25
2022-10-17T13:56:15.789Z,99290.19
2022-10-17T13:58:48.351Z,99289.25
2022-10-17T14:01:16.080Z,99285.97
2022-10-17T14:03:48.762Z,99281.09
2022-10-17T14:06:19.124Z,99285.34
2022-10-17T14:09:04.309Z,99285.94
2022-10-17T14:11:36.063Z,99284.25
2022-10-17T14:14:05.809Z,99288.25
2022-10-17T14:16:37.977Z,99283.03
2022-10-17T14:19:06.003Z,99286.00
2022-10-17T14:21:43.360Z,99291.25
2022-10-17T14:24:29.774Z,99296.91
2022-10-17T14:26:59.532Z,99293.97
2022-10-17T14:29:30.905Z,99285.59
2022-10-17T14:32:01.627Z,99294.75
2022-10-17T14:34:33.557Z,99287.00
2022-10-17T14:37:00.617Z,99297.59
2022-10-17T14:39:28.355Z,99294.34
2022-10-17T14:41:55.398Z,99293.78
2022-10-17T14:44:32.875Z,99292.19
2022-10-17T14:47:18.243Z,99296.22
2022-10-17T14:49:52.082Z,99295.69
2022-10-17T14:52:19.122Z,99294.34
2022-10-17T14:54:50.976Z,99291.66
2022-10-17T14:57:22.128Z,99297.56
2022-10-17T14:59:54.360Z,99297.03
2022-10-17T15:02:23.577Z,99296.19
2022-10-17T15:04:50.219Z,99289.09
2022-10-17T15:07:18.149Z,99300.56
2022-10-17T15:09:47.264Z,99300.25
2022-10-17T15:12:16.992Z,99294.78
2022-10-17T15:14:45.104Z,99299.03
2022-10-17T15:17:15.320Z,99297.56
2022-10-17T15:19:42.034Z,99299.91
2022-10-17T15:22:08.689Z,99302.56
2022-10-17T15:24:35.299Z,99302.50
2022-10-17T15:27:02.283Z,99307.59
2022-10-17T15:29:28.967Z,99296.50
2022-10-17T15:31:55.676Z,99300.25
2022-10-17T15:34:22.249Z,99293.94
2022-10-17T15:36:51.054Z,99293.84
2022-10-17T15:39:18.639Z,99301.78
2022-10-17T15:41:45.555Z,99300.88
2022-10-17T15:44:12.195Z,99301.63
2022-10-17T15:46:41.167Z,99301.50
2022-10-17T15:49:12.925Z,99300.81
2022-10-17T15:51:40.075Z,99296.59
2022-10-17T15:54:07.218Z,99310.59
2022-10-17T15:56:42.983Z,99303.44
2022-10-17T15:59:15.422Z,99306.94
2022-10-17T16:01:42.674Z,99303.88
2022-10-17T16:04:14.744Z,99310.69
2022-10-17T16:06:42.808Z,99310.53
2022-10-17T16:09:09.560Z,99309.06
2022-10-17T16:11:39.840Z,99314.22
2022-10-17T16:14:10.987Z,99314.84
2022-10-17T16:16:37.711Z,99318.25
2022-10-17T16:19:04.829Z,99316.22
2022-10-17T16:21:34.749Z,99318.69
2022-10-17T16:24:01.844Z,99322.00
2022-10-17T16:26:28.986Z,99317.19
2022-10-17T16:28:58.745Z,99322.66
2022-10-17T16:31:29.445Z,99317.78
2022-10-17T16:33:57.798Z,99320.81
2022-10-17T16:36:24.741Z,99324.78
2022-10-17T16:38:54.037Z,99323.53
2022-10-17T16:41:23.453Z,99325.53
2022-10-17T16:43:51.596Z,99328.53
2022-10-17T16:46:19.339Z,99322.28
2022-10-17T16:48:46.882Z,99329.81
2022-10-17T16:51:15.178Z,99338.75
2022-10-17T16:53:44.425Z,99343.97
2022-10-17T16:56:13.852Z,99350.47
2022-10-17T16:58:41.714Z,99352.47
2022-10-17T17:01:15.446Z,99344.78
2022-10-17T17:03:44.221Z,99350.44
2022-10-17T17:06:14.671Z,99351.41
2022-10-17T17:08:43.182Z,99365.16
2022-10-17T17:11:11.822Z,99362.38
2022-10-17T17:13:38.819Z,99359.56
2022-10-17T17:16:07.279Z,99357.25
2022-10-17T17:18:34.545Z,99358.19
2022-10-17T17:21:02.740Z,99362.41
2022-10-17T17:23:35.638Z,99366.91
2022-10-17T17:26:05.418Z,99354.16
2022-10-17T17:28:33.887Z,99364.22
2022-10-17T17:31:00.869Z,99356.09
2022-10-17T17:33:30.223Z,99352.13
2022-10-17T17:36:00.122Z,99367.53
2022-10-17T17:38:29.653Z,99363.69
2022-10-17T17:40:59.954Z,99364.72
2022-10-17T17:43:27.108Z,99365.69
2022-10-17T17:45:54.048Z,99359.81
2022-10-17T17:48:21.175Z,99367.31
2022-10-17T17:50:48.810Z,99364.59
2022-10-17T17:53:16.849Z,99366.22
2022-10-17T17:55:43.524Z,99371.09
2022-10-17T17:58:12.254Z,99373.59
2022-10-17T18:00:40.612Z,99377.75
2022-10-17T18:03:08.030Z,99375.53
2022-10-17T18:05:34.749Z,99381.09
2022-10-17T18:08:01.521Z,99377.59
2022-10-17T18:10:29.375Z,99378.28
2022-10-17T18:12:56.036Z,99383.78
2022-10-17T18:15:22.795Z,99386.09
2022-10-17T18:17:49.449Z,99393.94
2022-10-17T18:20:16.416Z,99398.88
2022-10-17T18:22:43.027Z,99402.41
2022-10-17T18:25:09.886Z,99392.19
2022-10-17T18:27:36.516Z,99395.72
2022-10-17T18:30:04.176Z,99403.19
2022-10-17T18:32:31.779Z,99400.31
2022-10-17T18:34:58.775Z,99402.78
2022-10-17T18:37:25.475Z,99401.16
2022-10-17T18:39:54.076Z,99401.50
2022-10-17T18:42:20.888Z,99406.47
2022-10-17T18:44:47.968Z,99411.47
2022-10-17T18:47:14.607Z,99406.22
2022-10-17T18:49:41.334Z,99410.91
2022-10-17T18:52:07.978Z,99412.75
2022-10-17T18:54:34.809Z,99410.91
2022-10-17T18:57:01.771Z,99408.69
2022-10-17T18:59:28.449Z,99412.13
2022-10-17T19:01:55.221Z,99409.69
2022-10-17T19:04:21.928Z,99417.97
2022-10-17T19:06:48.571Z,99420.84
2022-10-17T19:09:15.637Z,99424.97
2022-10-17T19:11:43.109Z,99419.06
2022-10-17T19:14:13.485Z,99418.19
2022-10-17T19:16:45.148Z,99424.13
2022-10-17T19:19:16.083Z,99436.81
2022-10-17T19:21:43.583Z,99429.03
2022-10-17T19:24:14.592Z,99424.16
2022-10-17T19:26:42.465Z,99432.16
2022-10-17T19:29:12.603Z,99430.75
2022-10-17T19:31:39.517Z,99428.09
2022-10-17T19:34:06.134Z,99428.88
2022-10-17T19:36:34.848Z,99430.97
2022-10-17T19:39:04.823Z,99432.59
2022-10-17T19:41:32.125Z,99432.41
2022-10-17T19:44:00.632Z,99438.97
2022-10-17T19:46:28.790Z,99435.09
2022-10-17T19:48:56.128Z,99430.19
2022-10-17T19:51:24.924Z,99429.19
2022-10-17T19:53:53.061Z,99438.44
2022-10-17T19:56:21.285Z,99430.06
2022-10-17T19:58:49.035Z,99435.59
2022-10-17T20:01:20.443Z,99430.88
2022-10-17T20:03:47.720Z,99429.66
2022-10-17T20:06:15.238Z,99423.13
2022-10-17T20:08:42.482Z,99429.06
2022-10-17T20:11:13.798Z,99432.72
2022-10-17T20:13:40.749Z,99439.88
2022-10-17T20:16:10.667Z,99436.22
2022-10-17T20:18:38.136Z,99436.63
2022-10-17T20:21:07.747Z,99437.88
2022-10-17T20:23:35.412Z,99436.84
2022-10-17T20:26:25.352Z,99442.53
2022-10-17T20:28:53.691Z,99445.63
2022-10-17T20:31:21.405Z,99445.19
2022-10-17T20:33:47.983Z,99448.47
2022-10-17T20:36:16.672Z,99446.25
2022-10-17T20:38:43.334Z,99457.88
2022-10-17T20:41:10.973Z,99458.88
2022-10-17T20:43:38.251Z,99456.44
2022-10-17T20:46:22.857Z,99460.31
2022-10-17T20:48:53.330Z,99460.09
2022-10-17T20:51:21.087Z,99462.75
2022-10-17T20:53:48.770Z,99462.97
2022-10-17T20:56:20.490Z,99460.09
2022-10-17T20:58:54.213Z,99460.47
2022-10-17T21:01:22.176Z,99454.59
2022-10-17T21:03:49.212Z,99457.44
2022-10-17T21:06:17.881Z,99456.22
2022-10-17T21:08:46.188Z,99454.59
2022-10-17T21:11:14.515Z,99459.47
2022-10-17T21:13:41.516Z,99461.09
2022-10-17T21:16:12.333Z,99466.16
2022-10-17T21:18:39.957Z,99467.81
2022-10-17T21:21:22.950Z,99470.91
2022-10-17T21:23:55.068Z,99467.41
2022-10-17T21:26:22.272Z,99461.09
2022-10-17T21:28:49.887Z,99464.78
2022-10-17T21:31:16.780Z,99459.41
2022-10-17T21:33:46.301Z,99466.34
2022-10-17T21:36:14.090Z,99466.78
2022-10-17T21:38:40.964Z,99466.38
2022-10-17T21:41:12.827Z,99470.84
2022-10-17T21:43:39.732Z,99475.50
2022-10-17T21:46:13.073Z,99466.31
2022-10-17T21:48:40.263Z,99473.28
2022-10-17T21:51:09.818Z,99470.59
2022-10-17T21:53:36.998Z,99472.78
2022-10-17T21:56:06.116Z,99468.25
2022-10-17T21:58:33.832Z,99462.13
2022-10-17T22:01:08.778Z,99471.88
2022-10-17T22:03:37.273Z,99468.22
2022-10-17T22:06:37.550Z,99470.31
2022-10-17T22:08:52.365Z,99467.41
2022-10-17T22:11:22.977Z,99468.84
2022-10-17T22:13:55.654Z,99468.06
2022-10-17T22:16:23.009Z,99470.50
2022-10-17T22:18:50.121Z,99467.03
2022-10-17T22:21:19.846Z,99461.25
2022-10-17T22:23:48.876Z,99461.66
2022-10-17T22:26:15.493Z,99464.28
2022-10-17T22:28:42.232Z,99463.28
2022-10-17T22:31:09.121Z,99458.19
2022-10-17T22:33:37.101Z,99462.28
2022-10-17T22:36:04.002Z,99459.59
2022-10-17T22:38:33.095Z,99463.69
2022-10-17T22:40:59.840Z,99462.06
2022-10-17T22:43:26.744Z,99455.47
2022-10-17T22:45:54.851Z,99457.09
2022-10-17T22:48:22.798Z,99455.06
2022-10-17T22:50:50.662Z,99451.78
2022-10-17T22:53:26.840Z,99451.41
2022-10-17T22:55:57.581Z,99451.78
2022-10-17T22:58:25.196Z,99446.50
2022-10-17T23:00:53.138Z,99455.44
2022-10-17T23:03:21.869Z,99452.44
2022-10-17T23:05:48.745Z,99451.63
2022-10-17T23:08:17.852Z,99452.88
2022-10-17T23:10:45.560Z,99450.25
2022-10-17T23:13:12.713Z,99454.31
2022-10-17T23:15:39.797Z,99450.88
2022-10-17T23:18:06.819Z,99451.28
2022-10-17T23:20:33.434Z,99452.50
2022-10-17T23:23:00.074Z,99451.09
2022-10-17T23:25:27.493Z,99446.22
2022-10-17T23:27:54.264Z,99449.47
2022-10-17T23:30:21.306Z,99443.41
2022-10-17T23:32:48.032Z,99447.28
2022-10-17T23:35:15.240Z,99443.41
2022-10-17T23:37:41.891Z,99447.06
2022-10-17T23:40:09.222Z,99450.31
2022-10-17T23:42:35.867Z,99448.25
2022-10-17T23:45:03.726Z,99448.25
2022-10-17T23:47:31.291Z,99447.03
2022-10-17T23:49:58.361Z,99448.69
2022-10-17T23:52:25.499Z,99443.41
2022-10-17T23:54:52.152Z,99451.97
2022-10-17T23:57:18.897Z,99450.38
2022-10-17T23:59:45.564Z,99449.56
